Terminal Aerodrome Forecast
Issued by NWS Cleveland, OH

Home | Current Version | Previous Version | Text Only | Print | Product List | Glossary On
Versions: 1 2 3 4 5 6 7 8 9 10 11 12 13 14 15 16 17
698
FTUS41 KCLE 061121
TAFCAK
TAF
KCAK 061121Z 0612/0712 33007KT P6SM SCT100
     FM061600 35012G20KT P6SM SCT250
     FM070100 33004KT P6SM FEW250
     FM071000 21004KT P6SM FEW250=

USA.gov is the U.S. government's official web portal to all federal, state and local government web resources and services.